createdAt,value
2022-09-02T00:02:09.597Z,60.68
2022-09-02T00:04:41.532Z,60.72
2022-09-02T00:07:13.457Z,60.73
2022-09-02T00:09:45.408Z,60.85
2022-09-02T00:12:18.831Z,60.78
2022-09-02T00:14:50.845Z,60.83
2022-09-02T00:17:22.900Z,60.94
2022-09-02T00:19:56.255Z,61.03
2022-09-02T00:22:31.102Z,61.28
2022-09-02T00:25:03.007Z,61.32
2022-09-02T00:27:34.985Z,61.32
2022-09-02T00:30:10.160Z,61.44
2022-09-02T00:32:44.198Z,61.39
2022-09-02T00:35:16.390Z,61.39
2022-09-02T00:37:48.336Z,61.42
2022-09-02T00:40:21.149Z,61.46
2022-09-02T00:42:54.601Z,61.50
2022-09-02T00:45:26.816Z,61.38
2022-09-02T00:47:58.748Z,61.47
2022-09-02T00:50:35.512Z,61.58
2022-09-02T00:53:12.721Z,61.55
2022-09-02T00:55:47.736Z,61.56
2022-09-02T00:58:24.977Z,61.42
2022-09-02T01:00:58.925Z,61.49
2022-09-02T01:03:35.782Z,61.53
2022-09-02T01:06:10.087Z,61.58
2022-09-02T01:08:44.219Z,61.49
2022-09-02T01:11:19.021Z,61.47
2022-09-02T01:13:53.256Z,61.57
2022-09-02T01:16:30.183Z,61.68
2022-09-02T01:19:08.015Z,61.67
2022-09-02T01:21:40.029Z,61.69
2022-09-02T01:24:13.847Z,61.74
2022-09-02T01:26:45.722Z,61.84
2022-09-02T01:29:18.063Z,61.86
2022-09-02T01:31:50.414Z,62.06
2022-09-02T01:34:24.640Z,62.18
2022-09-02T01:36:56.831Z,62.33
2022-09-02T01:39:28.792Z,62.45
2022-09-02T01:42:01.326Z,62.47
2022-09-02T01:44:36.220Z,62.42
2022-09-02T01:47:08.412Z,62.44
2022-09-02T01:49:40.718Z,62.41
2022-09-02T01:52:12.524Z,62.40
2022-09-02T01:54:48.201Z,62.59
2022-09-02T01:57:20.278Z,62.56
2022-09-02T01:59:52.435Z,62.72
2022-09-02T02:02:25.121Z,62.78
2022-09-02T02:04:58.624Z,62.94
2022-09-02T02:07:30.514Z,63.09
2022-09-02T02:10:02.947Z,63.29
2022-09-02T02:12:34.899Z,63.20
2022-09-02T02:15:11.563Z,63.07
2022-09-02T02:17:43.584Z,63.06
2022-09-02T02:20:24.237Z,62.87
2022-09-02T02:22:56.246Z,62.99
2022-09-02T02:25:29.258Z,62.97
2022-09-02T02:28:01.030Z,63.11
2022-09-02T02:30:37.350Z,63.26
2022-09-02T02:33:09.382Z,63.25
2022-09-02T02:35:41.323Z,63.38
2022-09-02T02:38:14.590Z,63.46
2022-09-02T02:40:51.030Z,63.73
2022-09-02T02:43:23.243Z,63.77
2022-09-02T02:45:56.150Z,63.96
2022-09-02T02:48:28.152Z,63.96
2022-09-02T02:51:03.281Z,64.18
2022-09-02T02:53:36.990Z,64.23
2022-09-02T02:56:10.033Z,64.36
2022-09-02T02:58:42.036Z,64.39
2022-09-02T03:01:17.814Z,64.44
2022-09-02T03:03:51.622Z,64.34
2022-09-02T03:06:26.587Z,64.26
2022-09-02T03:08:59.873Z,64.15
2022-09-02T03:11:34.601Z,64.14
2022-09-02T03:14:07.741Z,64.08
2022-09-02T03:16:40.085Z,64.07
2022-09-02T03:19:14.291Z,63.92
2022-09-02T03:21:47.852Z,64.02
2022-09-02T03:24:20.109Z,63.93
2022-09-02T03:26:52.049Z,63.86
2022-09-02T03:29:24.016Z,64.01
2022-09-02T03:31:57.530Z,63.83
2022-09-02T03:34:29.917Z,63.93
2022-09-02T03:37:01.953Z,64.01
2022-09-02T03:39:34.022Z,64.07
2022-09-02T03:42:06.264Z,64.20
2022-09-02T03:44:38.060Z,64.09
2022-09-02T03:47:10.091Z,64.15
2022-09-02T03:49:43.775Z,64.16
2022-09-02T03:52:16.578Z,64.31
2022-09-02T03:54:49.100Z,64.46
2022-09-02T03:57:24.000Z,64.71
2022-09-02T03:59:55.982Z,64.90
2022-09-02T04:02:30.486Z,65.37
2022-09-02T04:05:02.588Z,65.08
2022-09-02T04:07:37.820Z,65.29
2022-09-02T04:10:16.870Z,65.19
2022-09-02T04:12:52.414Z,65.07
2022-09-02T04:15:25.358Z,65.05
2022-09-02T04:17:57.230Z,65.02
2022-09-02T04:20:29.134Z,64.98
2022-09-02T04:23:04.091Z,64.94
2022-09-02T04:25:39.612Z,64.78
2022-09-02T04:28:13.287Z,64.78
2022-09-02T04:30:45.826Z,64.82
2022-09-02T04:33:18.230Z,64.97
2022-09-02T04:35:51.129Z,65.11
2022-09-02T04:38:23.387Z,65.28
2022-09-02T04:40:55.550Z,65.42
2022-09-02T04:43:27.575Z,65.97
2022-09-02T04:45:59.490Z,65.79
2022-09-02T04:48:32.677Z,66.06
2022-09-02T04:51:09.279Z,66.14
2022-09-02T04:53:42.063Z,66.02
2022-09-02T04:56:17.907Z,66.22
2022-09-02T04:58:51.835Z,66.14
2022-09-02T05:01:25.865Z,66.23
2022-09-02T05:03:58.042Z,66.08
2022-09-02T05:06:30.901Z,66.06
2022-09-02T05:09:03.768Z,66.34
2022-09-02T05:11:38.036Z,66.11
2022-09-02T05:14:10.851Z,66.23
2022-09-02T05:16:45.828Z,66.15
2022-09-02T05:19:18.162Z,66.22
2022-09-02T05:21:51.277Z,66.44
2022-09-02T05:25:51.786Z,66.43
2022-09-02T05:28:39.267Z,66.33
2022-09-02T05:31:16.623Z,66.38
2022-09-02T05:33:49.443Z,66.38
2022-09-02T05:36:23.423Z,66.17
2022-09-02T05:38:55.512Z,66.31
2022-09-02T05:41:28.731Z,66.20
2022-09-02T05:44:03.601Z,66.14
2022-09-02T05:46:37.060Z,65.94
2022-09-02T05:49:10.297Z,66.11
2022-09-02T05:51:46.741Z,66.03
2022-09-02T05:54:21.169Z,65.86
2022-09-02T05:56:56.946Z,65.83
2022-09-02T05:59:31.675Z,65.70
2022-09-02T06:02:04.104Z,65.77
2022-09-02T06:04:40.764Z,65.61
2022-09-02T06:07:13.610Z,65.33
2022-09-02T06:09:45.903Z,65.29
2022-09-02T06:12:20.520Z,65.04
2022-09-02T06:14:56.513Z,64.70
2022-09-02T06:17:28.743Z,64.30
2022-09-02T06:20:01.127Z,63.49
2022-09-02T06:22:33.061Z,63.24
2022-09-02T06:25:05.618Z,62.51
2022-09-02T06:27:38.343Z,62.17
2022-09-02T06:30:17.149Z,61.72
2022-09-02T06:32:50.628Z,61.49
2022-09-02T06:35:23.161Z,61.27
2022-09-02T06:37:55.082Z,61.26
2022-09-02T06:40:43.111Z,60.71
2022-09-02T06:43:16.616Z,60.55
2022-09-02T06:45:48.842Z,59.92
2022-09-02T06:48:21.341Z,60.07
2022-09-02T06:50:53.673Z,59.85
2022-09-02T06:53:26.740Z,59.96
2022-09-02T06:55:58.651Z,59.73
2022-09-02T06:58:30.837Z,60.01
2022-09-02T07:01:02.799Z,57.83
2022-09-02T07:03:48.781Z,58.34
2022-09-02T07:06:21.755Z,58.77
2022-09-02T07:08:53.592Z,58.76
2022-09-02T07:11:26.840Z,57.90
2022-09-02T07:14:01.336Z,58.29
2022-09-02T07:16:36.492Z,57.76
2022-09-02T07:19:14.061Z,57.44
2022-09-02T07:21:47.439Z,57.66
2022-09-02T07:24:21.231Z,56.96
2022-09-02T07:26:55.588Z,57.57
2022-09-02T07:29:27.962Z,56.30
2022-09-02T07:31:59.935Z,57.15
2022-09-02T07:34:32.758Z,54.59
2022-09-02T07:37:09.949Z,55.13
2022-09-02T07:39:44.188Z,54.18
2022-09-02T07:42:16.070Z,52.58
2022-09-02T07:44:48.417Z,51.72
2022-09-02T07:47:20.249Z,52.37
2022-09-02T07:52:44.880Z,51.60
2022-09-02T07:55:16.825Z,49.09
2022-09-02T07:57:49.269Z,48.59
2022-09-02T08:00:27.784Z,49.44
2022-09-02T08:03:00.735Z,48.31
2022-09-02T08:05:34.204Z,49.39
2022-09-02T08:08:06.770Z,45.62
2022-09-02T08:10:44.947Z,46.14
2022-09-02T08:13:17.482Z,45.82
2022-09-02T08:15:50.612Z,47.55
2022-09-02T08:18:23.336Z,47.08
2022-09-02T08:20:55.444Z,45.60
2022-09-02T08:23:36.644Z,46.72
2022-09-02T08:26:10.176Z,45.77
2022-09-02T08:28:42.190Z,45.24
2022-09-02T08:31:14.132Z,45.87
2022-09-02T08:33:46.088Z,44.78
2022-09-02T08:36:18.464Z,42.08
2022-09-02T08:38:50.370Z,42.67
2022-09-02T08:41:26.229Z,45.43
2022-09-02T08:44:02.262Z,45.69
2022-09-02T08:46:36.162Z,43.98
2022-09-02T08:49:14.513Z,44.76
2022-09-02T08:51:53.175Z,42.76
2022-09-02T08:54:32.824Z,41.92
2022-09-02T08:57:05.085Z,41.00
2022-09-02T08:59:38.174Z,42.27
2022-09-02T09:02:20.559Z,42.21
2022-09-02T09:05:11.081Z,41.56
2022-09-02T09:07:56.271Z,40.72
2022-09-02T09:11:13.360Z,41.85
2022-09-02T09:14:16.053Z,42.57
2022-09-02T09:16:55.043Z,42.35
2022-09-02T09:19:35.511Z,41.29
2022-09-02T09:22:07.484Z,40.92
2022-09-02T09:24:44.493Z,41.01
2022-09-02T09:27:20.701Z,40.60
2022-09-02T09:29:54.124Z,39.95
2022-09-02T09:32:31.060Z,38.99
2022-09-02T09:35:16.973Z,40.31
2022-09-02T09:37:50.720Z,40.41
2022-09-02T09:40:40.457Z,40.48
2022-09-02T09:43:16.938Z,40.50
2022-09-02T09:45:50.936Z,41.12
2022-09-02T09:48:30.935Z,41.44
2022-09-02T09:51:19.279Z,41.65
2022-09-02T09:53:51.566Z,40.64
2022-09-02T09:56:39.795Z,40.57
2022-09-02T09:59:39.078Z,40.74
2022-09-02T10:02:22.140Z,39.96
2022-09-02T10:04:57.084Z,38.15
2022-09-02T10:07:40.543Z,39.35
2022-09-02T10:10:19.116Z,38.90
2022-09-02T10:12:53.589Z,37.91
2022-09-02T10:15:39.121Z,39.14
2022-09-02T10:18:24.750Z,39.53
2022-09-02T10:21:15.674Z,39.23
2022-09-02T10:23:57.328Z,38.75
2022-09-02T10:26:38.175Z,38.13
2022-09-02T10:29:47.620Z,38.02
2022-09-02T10:32:41.404Z,38.70
2022-09-02T10:35:20.167Z,39.83
2022-09-02T10:38:13.428Z,39.12
2022-09-02T10:40:52.350Z,39.25
2022-09-02T10:43:40.392Z,38.88
2022-09-02T10:46:18.351Z,37.27
2022-09-02T10:49:02.694Z,38.66
2022-09-02T10:51:46.277Z,38.59
2022-09-02T10:54:33.770Z,37.81
2022-09-02T10:57:11.411Z,38.57
2022-09-02T10:59:49.958Z,39.10
2022-09-02T11:02:27.754Z,39.15
2022-09-02T11:05:06.082Z,38.65
2022-09-02T11:07:43.728Z,37.50
2022-09-02T11:10:21.075Z,38.33
2022-09-02T11:12:59.776Z,38.29
2022-09-02T11:15:42.900Z,38.24
2022-09-02T11:18:26.695Z,38.09
2022-09-02T11:21:37.522Z,38.10
2022-09-02T11:24:46.921Z,36.95
2022-09-02T11:27:41.618Z,37.03
2022-09-02T11:30:23.539Z,38.06
2022-09-02T11:33:03.584Z,37.91
2022-09-02T11:35:39.487Z,37.86
2022-09-02T11:38:40.302Z,37.28
2022-09-02T11:41:51.369Z,37.16
2022-09-02T11:44:52.719Z,36.74
2022-09-02T11:47:54.402Z,36.29
2022-09-02T11:50:48.068Z,37.04
2022-09-02T11:53:28.162Z,37.27
2022-09-02T11:56:07.130Z,37.27
2022-09-02T11:58:42.616Z,36.58
2022-09-02T12:01:28.839Z,37.09
2022-09-02T12:07:29.869Z,36.88
2022-09-02T12:10:13.783Z,36.11
2022-09-02T12:13:10.527Z,33.50
2022-09-02T12:15:42.647Z,34.40
2022-09-02T12:18:31.185Z,34.71
2022-09-02T12:21:23.187Z,35.14
2022-09-02T12:24:22.353Z,34.93
2022-09-02T12:27:21.939Z,34.70
2022-09-02T12:29:54.054Z,35.05
2022-09-02T12:33:09.846Z,34.05
2022-09-02T12:35:58.541Z,32.66
2022-09-02T12:38:38.906Z,32.53
2022-09-02T12:41:24.151Z,31.34
2022-09-02T12:44:10.594Z,31.91
2022-09-02T12:46:59.033Z,32.81
2022-09-02T12:49:48.473Z,31.91
2022-09-02T12:52:42.540Z,32.83
2022-09-02T12:55:20.964Z,32.00
2022-09-02T12:57:55.917Z,32.60
2022-09-02T13:00:39.530Z,33.69
2022-09-02T13:03:25.725Z,33.41
2022-09-02T13:06:05.881Z,33.06
2022-09-02T13:09:15.754Z,32.62
2022-09-02T13:12:12.181Z,32.22
2022-09-02T13:15:03.039Z,32.64
2022-09-02T13:17:58.563Z,33.09
2022-09-02T13:20:58.120Z,32.06
2022-09-02T13:24:18.197Z,32.34
2022-09-02T13:27:09.791Z,32.36
2022-09-02T13:30:12.009Z,32.78
2022-09-02T13:32:45.009Z,33.79
2022-09-02T13:35:26.141Z,33.64
2022-09-02T13:38:01.736Z,33.66
2022-09-02T13:40:37.274Z,33.64
2022-09-02T13:43:22.000Z,33.02
2022-09-02T13:45:56.767Z,33.68
2022-09-02T13:48:31.582Z,32.92
2022-09-02T13:51:14.418Z,32.14
2022-09-02T13:54:18.831Z,32.49
2022-09-02T13:56:41.458Z,32.15
2022-09-02T13:59:13.414Z,31.60
2022-09-02T14:01:46.283Z,30.85
2022-09-02T14:04:19.531Z,31.16
2022-09-02T14:06:52.552Z,30.75
2022-09-02T14:09:27.381Z,31.47
2022-09-02T14:12:00.992Z,31.55
2022-09-02T14:14:33.780Z,32.09
2022-09-02T14:17:25.946Z,31.44
2022-09-02T14:20:17.363Z,32.04
2022-09-02T14:22:58.682Z,31.39
2022-09-02T14:25:37.725Z,32.31
2022-09-02T14:28:19.480Z,31.54
2022-09-02T14:31:00.588Z,32.20
2022-09-02T14:33:44.014Z,32.59
2022-09-02T14:36:35.659Z,32.85
2022-09-02T14:39:17.048Z,33.34
2022-09-02T14:41:53.602Z,32.39
2022-09-02T14:44:34.093Z,32.57
2022-09-02T14:47:14.822Z,32.71
2022-09-02T14:49:56.192Z,32.05
2022-09-02T14:52:30.184Z,32.27
2022-09-02T14:55:50.519Z,32.25
2022-09-02T14:58:27.371Z,32.67
2022-09-02T15:01:02.635Z,32.33
2022-09-02T15:03:38.007Z,32.18
2022-09-02T15:06:15.156Z,32.82
2022-09-02T15:08:48.667Z,32.59
2022-09-02T15:11:22.995Z,33.03
2022-09-02T15:13:54.832Z,33.30
2022-09-02T15:16:26.745Z,33.39
2022-09-02T15:18:58.625Z,33.35
2022-09-02T15:21:31.279Z,33.58
2022-09-02T15:24:03.308Z,33.72
2022-09-02T15:26:35.208Z,33.94
2022-09-02T15:29:07.997Z,33.90
2022-09-02T15:31:40.931Z,33.45
2022-09-02T15:34:13.047Z,32.69
2022-09-02T15:36:45.553Z,32.38
2022-09-02T15:39:19.588Z,31.29
2022-09-02T15:41:53.209Z,31.20
2022-09-02T15:44:26.040Z,31.59
2022-09-02T15:46:58.190Z,31.04
2022-09-02T15:49:30.816Z,31.70
2022-09-02T15:52:05.231Z,32.04
2022-09-02T15:54:37.060Z,32.61
2022-09-02T15:57:09.099Z,32.82
2022-09-02T15:59:41.610Z,33.03
2022-09-02T16:02:13.642Z,33.21
2022-09-02T16:04:45.558Z,33.79
2022-09-02T16:07:17.515Z,34.09
2022-09-02T16:09:49.338Z,34.12
2022-09-02T16:12:22.270Z,34.46
2022-09-02T16:14:54.185Z,34.53
2022-09-02T16:17:26.194Z,34.87
2022-09-02T16:19:58.077Z,34.93
2022-09-02T16:22:30.001Z,35.08
2022-09-02T16:25:01.983Z,35.05
2022-09-02T16:27:56.695Z,35.38
2022-09-02T16:30:31.084Z,35.53
2022-09-02T16:33:04.903Z,35.84
2022-09-02T16:35:36.843Z,35.86
2022-09-02T16:38:08.881Z,36.16
2022-09-02T16:40:40.957Z,36.13
2022-09-02T16:43:14.511Z,36.25
2022-09-02T16:45:46.900Z,36.33
2022-09-02T16:48:23.704Z,36.40
2022-09-02T16:50:57.430Z,36.41
2022-09-02T16:53:29.340Z,36.56
2022-09-02T16:56:01.974Z,36.57
2022-09-02T16:58:33.894Z,36.65
2022-09-02T17:01:12.223Z,36.68
2022-09-02T17:03:45.891Z,36.56
2022-09-02T17:06:18.331Z,36.57
2022-09-02T17:08:51.517Z,36.52
2022-09-02T17:11:26.757Z,36.45
2022-09-02T17:14:03.121Z,36.43
2022-09-02T17:16:37.073Z,36.40
2022-09-02T17:19:11.355Z,36.43
2022-09-02T17:21:47.711Z,36.44
2022-09-02T17:24:21.857Z,36.59
2022-09-02T17:26:56.239Z,36.69
2022-09-02T17:32:22.764Z,37.29
2022-09-02T17:34:54.635Z,37.23
2022-09-02T17:37:27.472Z,37.63
2022-09-02T17:39:59.704Z,37.73
2022-09-02T17:42:31.772Z,37.97
2022-09-02T17:45:03.782Z,38.23
2022-09-02T17:47:35.576Z,38.22
2022-09-02T17:50:18.078Z,38.44
2022-09-02T17:52:52.145Z,38.70
2022-09-02T17:55:24.015Z,38.60
2022-09-02T17:58:15.089Z,38.77
2022-09-02T18:00:50.289Z,38.94
2022-09-02T18:03:34.849Z,39.21
2022-09-02T18:06:16.969Z,39.36
2022-09-02T18:08:56.017Z,39.59
2022-09-02T18:11:28.724Z,39.71
2022-09-02T18:14:14.166Z,39.87
2022-09-02T18:16:58.807Z,40.05
2022-09-02T18:19:45.983Z,40.25
2022-09-02T18:22:35.993Z,40.37
2022-09-02T18:25:24.095Z,40.69
2022-09-02T18:28:05.760Z,40.51
2022-09-02T18:30:45.208Z,41.03
2022-09-02T18:33:30.502Z,41.16
2022-09-02T18:36:15.087Z,41.42
2022-09-02T18:38:58.640Z,41.49
2022-09-02T18:41:43.098Z,41.60
2022-09-02T18:44:29.188Z,41.65
2022-09-02T18:47:04.473Z,41.98
2022-09-02T18:49:39.955Z,42.05
2022-09-02T18:52:13.106Z,42.41
2022-09-02T18:54:50.837Z,42.83
2022-09-02T18:57:22.981Z,42.44
2022-09-02T19:00:02.434Z,42.76
2022-09-02T19:02:42.174Z,43.16
2022-09-02T19:05:17.957Z,43.13
2022-09-02T19:08:15.161Z,43.14
2022-09-02T19:10:48.079Z,43.26
2022-09-02T19:13:21.071Z,43.18
2022-09-02T19:15:55.759Z,43.47
2022-09-02T19:18:34.272Z,43.38
2022-09-02T19:21:06.991Z,43.93
2022-09-02T19:23:40.856Z,44.09
2022-09-02T19:26:13.440Z,43.94
2022-09-02T19:28:48.585Z,43.94
2022-09-02T19:31:24.975Z,43.88
2022-09-02T19:34:00.860Z,44.13
2022-09-02T19:36:34.241Z,44.15
2022-09-02T19:39:08.324Z,44.55
2022-09-02T19:41:44.022Z,44.52
2022-09-02T19:44:17.794Z,44.49
2022-09-02T19:47:49.934Z,44.44
2022-09-02T19:49:42.039Z,44.96
2022-09-02T19:52:14.808Z,44.78
2022-09-02T19:54:47.209Z,44.52
2022-09-02T19:57:19.085Z,45.22
2022-09-02T19:59:51.966Z,44.96
2022-09-02T20:02:24.802Z,45.21
2022-09-02T20:04:56.789Z,45.04
2022-09-02T20:07:28.831Z,45.41
2022-09-02T20:10:00.906Z,45.16
2022-09-02T20:12:35.893Z,45.62
2022-09-02T20:15:09.500Z,45.31
2022-09-02T20:17:41.373Z,45.58
2022-09-02T20:20:21.805Z,45.44
2022-09-02T20:22:58.429Z,46.07
2022-09-02T20:25:40.593Z,45.83
2022-09-02T20:28:24.052Z,46.23
2022-09-02T20:31:17.418Z,46.27
2022-09-02T20:33:59.798Z,46.36
2022-09-02T20:36:39.562Z,46.55
2022-09-02T20:39:25.751Z,46.66
2022-09-02T20:42:05.715Z,46.83
2022-09-02T20:44:59.595Z,46.76
2022-09-02T20:47:43.979Z,46.90
2022-09-02T20:50:38.839Z,47.05
2022-09-02T20:53:25.319Z,46.91
2022-09-02T20:56:02.366Z,47.07
2022-09-02T20:58:44.556Z,47.29
2022-09-02T21:01:24.806Z,47.89
2022-09-02T21:04:04.923Z,47.50
2022-09-02T21:06:41.691Z,47.74
2022-09-02T21:09:21.242Z,48.17
2022-09-02T21:12:01.632Z,47.82
2022-09-02T21:14:41.430Z,47.93
2022-09-02T21:17:21.014Z,48.01
2022-09-02T21:20:00.106Z,48.22
2022-09-02T21:22:38.831Z,48.39
2022-09-02T21:25:16.582Z,48.67
2022-09-02T21:27:58.448Z,48.52
2022-09-02T21:30:35.338Z,48.86
2022-09-02T21:33:11.399Z,48.68
2022-09-02T21:35:47.301Z,48.97
2022-09-02T21:38:24.402Z,49.05
2022-09-02T21:41:10.716Z,49.45
2022-09-02T21:43:55.844Z,49.36
2022-09-02T21:46:37.247Z,49.32
2022-09-02T21:49:14.893Z,49.59
2022-09-02T21:51:51.934Z,49.56
2022-09-02T21:54:43.142Z,49.53
2022-09-02T21:57:32.326Z,49.55
2022-09-02T22:00:12.476Z,49.68
2022-09-02T22:02:58.241Z,49.90
2022-09-02T22:05:45.211Z,50.19
2022-09-02T22:08:22.637Z,50.21
2022-09-02T22:11:08.608Z,50.44
2022-09-02T22:13:42.128Z,50.49
2022-09-02T22:16:22.239Z,50.53
2022-09-02T22:19:02.385Z,50.52
2022-09-02T22:21:49.943Z,50.71
2022-09-02T22:24:26.282Z,50.99
2022-09-02T22:27:06.392Z,50.80
2022-09-02T22:29:47.675Z,51.29
2022-09-02T22:32:24.508Z,51.29
2022-09-02T22:35:07.433Z,51.74
2022-09-02T22:37:48.954Z,51.81
2022-09-02T22:40:25.808Z,51.69
2022-09-02T22:43:04.732Z,52.05
2022-09-02T22:46:09.297Z,51.69
2022-09-02T22:49:04.646Z,52.28
2022-09-02T22:52:01.512Z,52.31
2022-09-02T22:54:33.426Z,52.25
2022-09-02T22:57:14.041Z,52.40
2022-09-02T23:00:01.994Z,52.82
2022-09-02T23:02:39.313Z,52.55
2022-09-02T23:05:45.423Z,53.07
2022-09-02T23:08:20.511Z,53.28
2022-09-02T23:11:00.219Z,53.78
2022-09-02T23:13:47.055Z,53.68
2022-09-02T23:16:28.199Z,53.96
2022-09-02T23:19:09.497Z,54.12
2022-09-02T23:21:49.854Z,54.31
2022-09-02T23:24:33.019Z,54.40
2022-09-02T23:27:10.882Z,55.64
2022-09-02T23:29:44.877Z,55.91
2022-09-02T23:32:44.320Z,55.47
2022-09-02T23:35:24.237Z,56.02
2022-09-02T23:38:23.618Z,55.57
2022-09-02T23:41:00.672Z,56.13
2022-09-02T23:43:32.611Z,56.12
2022-09-02T23:46:15.889Z,56.53
2022-09-02T23:48:58.310Z,56.26
2022-09-02T23:51:40.666Z,56.57
2022-09-02T23:54:25.608Z,56.80
2022-09-02T23:57:12.117Z,56.54
